createdAt,value
2023-03-03T00:01:05.288Z,89.68
2023-03-03T00:03:34.527Z,96.28
2023-03-03T00:06:03.639Z,95.72
2023-03-03T00:08:33.463Z,94.38
2023-03-03T00:11:03.238Z,98.32
2023-03-03T00:13:32.784Z,104.50
2023-03-03T00:16:15.228Z,102.30
2023-03-03T00:18:47.920Z,100.18
2023-03-03T00:21:29.306Z,102.78
2023-03-03T00:24:13.143Z,102.63
2023-03-03T00:26:42.603Z,98.85
2023-03-03T00:29:32.392Z,103.45
2023-03-03T00:32:28.431Z,104.18
2023-03-03T00:35:01.817Z,99.90
2023-03-03T00:37:32.389Z,103.97
2023-03-03T00:40:30.719Z,106.13
2023-03-03T00:43:01.288Z,104.63
2023-03-03T00:45:36.365Z,104.90
2023-03-03T00:48:22.311Z,102.28
2023-03-03T00:50:52.059Z,97.28
2023-03-03T00:53:21.144Z,99.53
2023-03-03T00:55:51.680Z,96.72
2023-03-03T00:58:21.857Z,100.80
2023-03-03T01:00:50.547Z,102.15
2023-03-03T01:03:19.985Z,103.13
2023-03-03T01:05:48.683Z,103.18
2023-03-03T01:08:16.629Z,97.78
2023-03-03T01:10:50.807Z,100.50
2023-03-03T01:13:22.397Z,98.68
2023-03-03T01:15:50.933Z,81.10
2023-03-03T01:18:19.064Z,107.28
2023-03-03T01:20:47.633Z,110.38
2023-03-03T01:23:15.531Z,119.20
2023-03-03T01:25:43.760Z,114.13
2023-03-03T01:28:12.080Z,110.57
2023-03-03T01:30:41.781Z,103.40
2023-03-03T01:33:09.694Z,100.97
2023-03-03T01:35:40.932Z,98.75
2023-03-03T01:38:09.048Z,101.18
2023-03-03T01:40:37.525Z,93.75
2023-03-03T01:43:05.536Z,95.20
2023-03-03T01:46:14.645Z,96.38
2023-03-03T01:48:44.101Z,95.55
2023-03-03T01:51:19.153Z,97.90
2023-03-03T01:53:51.067Z,98.13
2023-03-03T01:56:19.773Z,99.05
2023-03-03T01:58:52.390Z,100.93
2023-03-03T02:01:24.141Z,95.85
2023-03-03T02:03:53.430Z,104.25
2023-03-03T02:06:25.698Z,98.60
2023-03-03T02:08:58.392Z,97.50
2023-03-03T02:11:27.673Z,95.88
2023-03-03T02:13:55.655Z,98.25
2023-03-03T02:16:25.343Z,99.38
2023-03-03T02:18:53.337Z,97.15
2023-03-03T02:21:22.782Z,99.20
2023-03-03T02:23:54.468Z,96.10
2023-03-03T02:26:26.035Z,122.10
2023-03-03T02:28:54.086Z,96.45
2023-03-03T02:31:25.101Z,92.18
2023-03-03T02:33:54.619Z,90.18
2023-03-03T02:36:24.918Z,88.32
2023-03-03T02:38:56.569Z,86.65
2023-03-03T02:41:31.979Z,95.72
2023-03-03T02:44:01.962Z,101.35
2023-03-03T02:46:34.309Z,105.63
2023-03-03T02:49:02.883Z,104.38
2023-03-03T02:51:31.088Z,108.00
2023-03-03T02:53:59.182Z,106.53
2023-03-03T02:56:28.924Z,108.63
2023-03-03T02:58:57.083Z,110.78
2023-03-03T03:01:25.663Z,112.05
2023-03-03T03:03:53.648Z,105.03
2023-03-03T03:06:21.900Z,90.63
2023-03-03T03:08:49.821Z,105.53
2023-03-03T03:11:18.175Z,112.45
2023-03-03T03:13:47.588Z,110.57
2023-03-03T03:16:15.823Z,115.90
2023-03-03T03:18:43.959Z,118.15
2023-03-03T03:21:13.448Z,115.20
2023-03-03T03:23:41.804Z,112.72
2023-03-03T03:26:10.794Z,116.22
2023-03-03T03:28:39.163Z,113.85
2023-03-03T03:31:10.280Z,112.38
2023-03-03T03:33:38.675Z,107.75
2023-03-03T03:36:07.725Z,113.75
2023-03-03T03:38:37.278Z,115.93
2023-03-03T03:41:06.229Z,112.43
2023-03-03T03:43:34.438Z,114.57
2023-03-03T03:46:02.736Z,108.85
2023-03-03T03:48:32.167Z,108.03
2023-03-03T03:51:00.321Z,105.78
2023-03-03T03:53:28.257Z,99.40
2023-03-03T03:55:56.432Z,100.13
2023-03-03T03:58:24.368Z,101.40
2023-03-03T04:00:52.661Z,100.22
2023-03-03T04:03:20.835Z,101.10
2023-03-03T04:05:51.069Z,90.82
2023-03-03T04:08:19.002Z,86.55
2023-03-03T04:10:47.328Z,86.70
2023-03-03T04:13:15.225Z,113.75
2023-03-03T04:15:43.740Z,100.57
2023-03-03T04:18:11.868Z,95.85
2023-03-03T04:20:41.282Z,110.13
2023-03-03T04:23:10.743Z,109.75
2023-03-03T04:25:39.379Z,110.97
2023-03-03T04:28:08.373Z,110.25
2023-03-03T04:30:36.546Z,109.13
2023-03-03T04:33:04.894Z,105.82
2023-03-03T04:35:33.349Z,107.47
2023-03-03T04:38:01.287Z,108.05
2023-03-03T04:40:31.170Z,112.03
2023-03-03T04:42:59.130Z,112.07
2023-03-03T04:45:27.360Z,95.07
2023-03-03T04:47:55.297Z,88.40
2023-03-03T04:50:23.700Z,97.47
2023-03-03T04:52:51.635Z,104.93
2023-03-03T04:55:19.980Z,104.65
2023-03-03T04:57:49.427Z,115.13
2023-03-03T05:00:18.784Z,113.40
2023-03-03T05:02:49.337Z,110.85
2023-03-03T05:05:17.742Z,110.45
2023-03-03T05:07:45.708Z,106.07
2023-03-03T05:10:14.010Z,103.82
2023-03-03T05:12:42.077Z,100.30
2023-03-03T05:15:13.534Z,110.10
2023-03-03T05:17:41.452Z,98.85
2023-03-03T05:20:11.528Z,95.18
2023-03-03T05:22:39.457Z,93.35
2023-03-03T05:25:09.814Z,95.13
2023-03-03T05:27:37.950Z,96.57
2023-03-03T05:30:07.171Z,94.38
2023-03-03T05:32:36.467Z,93.60
2023-03-03T05:35:05.367Z,97.07
2023-03-03T05:37:33.415Z,95.57
2023-03-03T05:40:01.811Z,98.20
2023-03-03T05:42:29.797Z,87.65
2023-03-03T05:44:58.518Z,95.68
2023-03-03T05:47:26.601Z,92.82
2023-03-03T05:49:56.144Z,90.30
2023-03-03T05:52:24.583Z,91.03
2023-03-03T05:54:52.936Z,98.60
2023-03-03T05:57:20.964Z,101.50
2023-03-03T05:59:49.131Z,94.10
2023-03-03T06:02:17.756Z,98.30
2023-03-03T06:04:46.033Z,100.45
2023-03-03T06:07:15.321Z,99.97
2023-03-03T06:09:43.694Z,117.68
2023-03-03T06:12:11.734Z,113.90
2023-03-03T06:14:39.897Z,129.07
2023-03-03T06:17:07.952Z,127.10
2023-03-03T06:19:36.860Z,130.13
2023-03-03T06:22:05.015Z,128.45
2023-03-03T06:24:34.643Z,127.63
2023-03-03T06:27:03.048Z,111.30
2023-03-03T06:29:31.240Z,119.75
2023-03-03T06:31:59.489Z,114.43
2023-03-03T06:34:27.976Z,116.30
2023-03-03T06:36:56.931Z,109.70
2023-03-03T06:39:25.287Z,110.88
2023-03-03T06:41:54.766Z,110.00
2023-03-03T06:44:22.686Z,107.50
2023-03-03T06:46:51.257Z,106.25
2023-03-03T06:49:19.287Z,106.22
2023-03-03T06:51:47.479Z,108.43
2023-03-03T06:54:17.211Z,113.53
2023-03-03T06:56:46.466Z,114.13
2023-03-03T06:59:17.105Z,113.28
2023-03-03T07:01:46.602Z,113.50
2023-03-03T07:04:26.627Z,112.40
2023-03-03T07:06:54.847Z,111.00
2023-03-03T07:09:25.163Z,112.40
2023-03-03T07:11:54.064Z,118.60
2023-03-03T07:14:23.310Z,113.07
2023-03-03T07:16:55.081Z,108.28
2023-03-03T07:19:30.754Z,119.65
2023-03-03T07:21:59.237Z,116.38
2023-03-03T07:24:28.943Z,111.60
2023-03-03T07:27:02.041Z,105.82
2023-03-03T07:29:31.545Z,107.70
2023-03-03T07:32:00.355Z,105.07
2023-03-03T07:34:32.608Z,99.00
2023-03-03T07:37:04.731Z,96.25
2023-03-03T07:39:39.033Z,77.90
2023-03-03T07:42:23.560Z,96.13
2023-03-03T07:44:55.352Z,94.55
2023-03-03T07:49:54.316Z,91.15
2023-03-03T07:52:28.838Z,91.25
2023-03-03T07:54:58.962Z,91.72
2023-03-03T07:57:28.735Z,99.72
2023-03-03T08:00:03.207Z,101.75
2023-03-03T08:02:39.454Z,102.55
2023-03-03T08:05:35.955Z,104.03
2023-03-03T08:08:20.714Z,104.03
2023-03-03T08:10:50.718Z,105.97
2023-03-03T08:13:21.006Z,109.32
2023-03-03T08:15:52.001Z,103.90
2023-03-03T08:18:25.639Z,106.47
2023-03-03T08:20:54.864Z,98.82
2023-03-03T08:23:23.562Z,101.95
2023-03-03T08:25:53.033Z,101.57
2023-03-03T08:28:22.582Z,99.05
2023-03-03T08:31:02.671Z,102.75
2023-03-03T08:33:37.650Z,99.72
2023-03-03T08:36:06.348Z,103.20
2023-03-03T08:38:35.875Z,103.25
2023-03-03T08:41:04.137Z,105.93
2023-03-03T08:43:32.654Z,107.65
2023-03-03T08:46:05.442Z,111.97
2023-03-03T08:48:34.796Z,111.43
2023-03-03T08:51:02.849Z,115.05
2023-03-03T08:53:33.521Z,117.55
2023-03-03T08:56:01.605Z,119.07
2023-03-03T08:58:35.148Z,131.40
2023-03-03T09:01:05.932Z,130.57
2023-03-03T09:03:34.114Z,129.50
2023-03-03T09:06:02.257Z,126.80
2023-03-03T09:08:30.872Z,128.07
2023-03-03T09:10:59.109Z,138.48
2023-03-03T09:13:29.836Z,151.18
2023-03-03T09:15:59.601Z,146.07
2023-03-03T09:18:32.678Z,157.15
2023-03-03T09:21:00.861Z,157.32
2023-03-03T09:23:34.751Z,168.38
2023-03-03T09:26:33.237Z,164.57
2023-03-03T09:29:17.816Z,168.93
2023-03-03T09:31:47.554Z,171.10
2023-03-03T09:34:22.304Z,166.00
2023-03-03T09:36:50.983Z,172.13
2023-03-03T09:39:20.990Z,163.93
2023-03-03T09:42:14.104Z,171.35
2023-03-03T09:45:09.456Z,162.60
2023-03-03T09:47:49.882Z,166.65
2023-03-03T09:50:31.480Z,153.52
2023-03-03T09:53:11.728Z,155.07
2023-03-03T09:55:48.360Z,147.30
2023-03-03T09:58:32.401Z,138.75
2023-03-03T10:01:11.115Z,130.57
2023-03-03T10:04:07.503Z,136.27
2023-03-03T10:06:39.013Z,134.10
2023-03-03T10:09:30.947Z,127.90
2023-03-03T10:12:03.916Z,118.95
2023-03-03T10:14:55.003Z,117.85
2023-03-03T10:17:30.120Z,122.43
2023-03-03T10:20:11.085Z,127.22
2023-03-03T10:22:49.771Z,130.98
2023-03-03T10:25:23.723Z,136.30
2023-03-03T10:28:03.569Z,124.90
2023-03-03T10:30:54.725Z,131.88
2023-03-03T10:33:35.197Z,133.43
2023-03-03T10:36:19.678Z,126.22
2023-03-03T10:38:55.515Z,125.90
2023-03-03T10:42:00.431Z,130.43
2023-03-03T10:44:37.835Z,130.55
2023-03-03T10:47:23.599Z,127.45
2023-03-03T10:49:59.296Z,128.27
2023-03-03T10:52:35.033Z,139.73
2023-03-03T10:55:36.879Z,136.75
2023-03-03T11:00:42.549Z,139.15
2023-03-03T11:03:38.054Z,135.73
2023-03-03T11:06:07.974Z,148.32
2023-03-03T11:08:39.342Z,143.93
2023-03-03T11:11:16.098Z,143.95
2023-03-03T11:13:48.496Z,140.75
2023-03-03T11:16:38.307Z,142.45
2023-03-03T11:19:24.557Z,144.93
2023-03-03T11:21:57.565Z,147.75
2023-03-03T11:24:36.650Z,140.27
2023-03-03T11:27:24.029Z,147.57
2023-03-03T11:30:04.928Z,148.23
2023-03-03T11:32:41.721Z,139.70
2023-03-03T11:35:23.734Z,139.18
2023-03-03T11:38:00.460Z,128.68
2023-03-03T11:40:31.806Z,122.68
2023-03-03T11:43:07.241Z,120.78
2023-03-03T11:45:41.130Z,114.50
2023-03-03T11:48:15.828Z,123.95
2023-03-03T11:50:48.490Z,123.13
2023-03-03T11:53:28.194Z,120.32
2023-03-03T11:55:58.515Z,121.13
2023-03-03T11:58:30.867Z,117.72
2023-03-03T12:01:04.131Z,112.78
2023-03-03T12:03:35.745Z,109.43
2023-03-03T12:06:14.600Z,113.03
2023-03-03T12:09:08.796Z,107.35
2023-03-03T12:11:42.579Z,104.03
2023-03-03T12:14:18.618Z,99.30
2023-03-03T12:16:54.656Z,102.78
2023-03-03T12:19:30.815Z,100.43
2023-03-03T12:22:12.454Z,92.82
2023-03-03T12:24:59.937Z,73.20
2023-03-03T12:27:31.460Z,82.25
2023-03-03T12:30:10.535Z,87.55
2023-03-03T12:32:56.525Z,84.82
2023-03-03T12:35:29.733Z,75.55
2023-03-03T12:38:03.196Z,82.53
2023-03-03T12:40:34.952Z,78.45
2023-03-03T12:43:19.202Z,84.00
2023-03-03T12:45:56.514Z,76.35
2023-03-03T12:48:29.967Z,76.38
2023-03-03T12:51:04.043Z,81.05
2023-03-03T12:53:41.499Z,72.75
2023-03-03T12:56:11.548Z,73.13
2023-03-03T12:58:46.438Z,72.43
2023-03-03T13:01:28.439Z,70.47
2023-03-03T13:04:05.248Z,62.87
2023-03-03T13:06:34.590Z,65.75
2023-03-03T13:09:23.335Z,68.57
2023-03-03T13:12:01.616Z,64.75
2023-03-03T13:14:35.988Z,68.65
2023-03-03T13:17:19.021Z,59.95
2023-03-03T13:22:30.856Z,60.95
2023-03-03T13:27:31.276Z,53.78
2023-03-03T13:30:02.464Z,60.70
2023-03-03T13:32:37.747Z,62.28
2023-03-03T13:35:09.091Z,56.05
2023-03-03T13:37:41.034Z,62.35
2023-03-03T13:40:17.943Z,60.88
2023-03-03T13:42:49.829Z,59.25
2023-03-03T13:45:24.561Z,51.97
2023-03-03T13:48:02.292Z,60.97
2023-03-03T13:50:34.632Z,56.92
2023-03-03T13:53:34.303Z,58.65
2023-03-03T13:56:09.690Z,55.13
2023-03-03T13:58:42.586Z,56.25
2023-03-03T14:01:15.982Z,54.05
2023-03-03T14:03:59.311Z,57.55
2023-03-03T14:06:28.552Z,47.20
2023-03-03T14:09:13.242Z,49.60
2023-03-03T14:11:45.774Z,54.53
2023-03-03T14:14:24.843Z,51.25
2023-03-03T14:16:54.940Z,53.10
2023-03-03T14:19:28.454Z,55.30
2023-03-03T14:22:06.238Z,52.92
2023-03-03T14:24:56.172Z,52.08
2023-03-03T14:27:26.219Z,48.75
2023-03-03T14:29:54.710Z,51.72
2023-03-03T14:32:35.877Z,56.25
2023-03-03T14:35:20.590Z,51.05
2023-03-03T14:37:48.532Z,51.33
2023-03-03T14:40:20.573Z,48.17
2023-03-03T14:42:50.009Z,46.42
2023-03-03T14:45:36.023Z,45.92
2023-03-03T14:48:13.145Z,47.38
2023-03-03T14:50:44.503Z,45.17
2023-03-03T14:53:16.474Z,46.33
2023-03-03T14:58:31.171Z,40.72
2023-03-03T15:01:18.494Z,45.78
2023-03-03T15:03:49.059Z,44.88
2023-03-03T15:06:38.165Z,52.20
2023-03-03T15:09:26.146Z,50.22
2023-03-03T15:11:55.609Z,38.70
2023-03-03T15:14:32.370Z,47.30
2023-03-03T15:17:19.956Z,45.38
2023-03-03T15:19:58.601Z,24.33
2023-03-03T15:22:42.428Z,45.08
2023-03-03T15:25:18.753Z,46.42
2023-03-03T15:27:51.273Z,40.88
2023-03-03T15:30:26.212Z,39.63
2023-03-03T15:32:59.376Z,41.83
2023-03-03T15:35:37.673Z,40.88
2023-03-03T15:38:16.510Z,40.13
2023-03-03T15:40:48.877Z,42.13
2023-03-03T15:43:23.866Z,42.58
2023-03-03T15:45:58.116Z,47.13
2023-03-03T15:48:39.486Z,49.33
2023-03-03T15:51:11.669Z,45.78
2023-03-03T15:53:58.136Z,36.15
2023-03-03T15:56:32.105Z,42.55
2023-03-03T15:59:26.403Z,42.45
2023-03-03T16:02:01.615Z,41.63
2023-03-03T16:04:34.237Z,40.22
2023-03-03T16:07:08.403Z,39.45
2023-03-03T16:09:52.648Z,44.72
2023-03-03T16:12:26.727Z,41.65
2023-03-03T16:15:17.583Z,44.05
2023-03-03T16:17:52.728Z,43.67
2023-03-03T16:20:24.371Z,45.35
2023-03-03T16:23:34.977Z,44.08
2023-03-03T16:26:14.311Z,44.50
2023-03-03T16:28:55.352Z,43.42
2023-03-03T16:31:28.020Z,39.60
2023-03-03T16:36:32.930Z,41.30
2023-03-03T16:39:05.147Z,42.35
2023-03-03T16:41:44.437Z,44.22
2023-03-03T16:44:28.855Z,40.75
2023-03-03T16:47:03.891Z,36.58
2023-03-03T16:49:35.435Z,35.47
2023-03-03T16:52:09.617Z,37.10
2023-03-03T16:54:41.455Z,36.67
2023-03-03T16:59:49.623Z,35.90
2023-03-03T17:02:43.084Z,33.55
2023-03-03T17:05:21.976Z,31.75
2023-03-03T17:07:58.957Z,32.17
2023-03-03T17:10:28.408Z,33.45
2023-03-03T17:13:24.074Z,31.52
2023-03-03T17:16:05.348Z,32.70
2023-03-03T17:18:42.785Z,25.77
2023-03-03T17:21:18.922Z,29.50
2023-03-03T17:24:01.200Z,32.92
2023-03-03T17:26:35.580Z,31.80
2023-03-03T17:29:20.218Z,31.20
2023-03-03T17:31:55.073Z,30.70
2023-03-03T17:34:35.134Z,32.28
2023-03-03T17:37:17.804Z,34.50
2023-03-03T17:40:12.609Z,33.00
2023-03-03T17:42:46.354Z,30.42
2023-03-03T17:45:17.005Z,30.08
2023-03-03T17:47:59.042Z,29.27
2023-03-03T17:53:14.008Z,33.45
2023-03-03T17:55:51.995Z,33.70
2023-03-03T17:58:44.861Z,31.42
2023-03-03T18:01:24.503Z,31.38
2023-03-03T18:04:27.794Z,29.98
2023-03-03T18:07:23.020Z,29.75
2023-03-03T18:10:01.290Z,27.75
2023-03-03T18:12:36.750Z,30.52
2023-03-03T18:15:28.922Z,28.30
2023-03-03T18:18:24.550Z,25.75
2023-03-03T18:21:05.320Z,28.33
2023-03-03T18:23:41.578Z,29.63
2023-03-03T18:26:35.942Z,30.15
2023-03-03T18:29:23.810Z,26.95
2023-03-03T18:32:04.611Z,26.88
2023-03-03T18:34:39.276Z,29.33
2023-03-03T18:37:13.634Z,28.02
2023-03-03T18:39:45.582Z,24.17
2023-03-03T18:42:37.714Z,24.27
2023-03-03T18:45:45.866Z,28.75
2023-03-03T18:48:14.638Z,27.88
2023-03-03T18:50:45.421Z,24.95
2023-03-03T18:53:28.656Z,28.38
2023-03-03T18:55:58.522Z,22.08
2023-03-03T18:58:44.370Z,25.35
2023-03-03T19:01:37.170Z,23.40
2023-03-03T19:04:18.283Z,26.00
2023-03-03T19:07:24.686Z,26.27
2023-03-03T19:09:58.122Z,27.52
2023-03-03T19:12:47.779Z,29.00
2023-03-03T19:15:52.146Z,56.10
2023-03-03T19:18:23.586Z,30.10
2023-03-03T19:20:56.477Z,30.38
2023-03-03T19:23:33.068Z,31.85
2023-03-03T19:26:32.563Z,32.97
2023-03-03T19:29:06.506Z,29.90
2023-03-03T19:31:39.832Z,29.52
2023-03-03T19:34:12.950Z,33.63
2023-03-03T19:36:55.307Z,31.08
2023-03-03T19:39:46.160Z,33.90
2023-03-03T19:42:21.495Z,36.47
2023-03-03T19:45:11.659Z,33.55
2023-03-03T19:47:44.115Z,40.13
2023-03-03T19:50:34.479Z,38.00
2023-03-03T19:53:09.593Z,37.88
2023-03-03T19:55:47.132Z,42.17
2023-03-03T19:58:26.294Z,44.05
2023-03-03T20:01:01.285Z,41.95
2023-03-03T20:03:43.954Z,43.83
2023-03-03T20:06:25.389Z,47.15
2023-03-03T20:08:58.368Z,45.45
2023-03-03T20:11:46.090Z,40.60
2023-03-03T20:14:26.926Z,43.50
2023-03-03T20:16:58.233Z,38.72
2023-03-03T20:19:32.020Z,39.45
2023-03-03T20:22:08.182Z,36.60
2023-03-03T20:24:47.097Z,35.15
2023-03-03T20:27:19.569Z,28.95
2023-03-03T20:30:11.588Z,30.88
2023-03-03T20:32:52.334Z,30.02
2023-03-03T20:35:29.544Z,30.88
2023-03-03T20:38:04.857Z,35.67
2023-03-03T20:40:36.555Z,31.00
2023-03-03T20:43:13.968Z,28.17
2023-03-03T20:45:49.932Z,33.35
2023-03-03T20:48:28.339Z,32.35
2023-03-03T20:51:02.446Z,29.58
2023-03-03T20:53:36.969Z,30.48
2023-03-03T20:56:08.535Z,37.00
2023-03-03T20:58:47.494Z,32.35
2023-03-03T21:01:17.748Z,33.80
2023-03-03T21:03:46.417Z,32.15
2023-03-03T21:06:16.168Z,30.02
2023-03-03T21:08:48.510Z,35.38
2023-03-03T21:11:18.462Z,32.15
2023-03-03T21:13:48.794Z,33.95
2023-03-03T21:16:31.446Z,32.60
2023-03-03T21:19:02.353Z,29.77
2023-03-03T21:21:32.245Z,32.92
2023-03-03T21:24:00.655Z,33.55
2023-03-03T21:26:51.500Z,32.28
2023-03-03T21:29:23.801Z,31.52
2023-03-03T21:31:53.456Z,31.58
2023-03-03T21:34:25.192Z,31.73
2023-03-03T21:36:55.203Z,31.05
2023-03-03T21:39:27.456Z,31.98
2023-03-03T21:41:57.158Z,33.85
2023-03-03T21:44:35.733Z,34.75
2023-03-03T21:47:04.230Z,31.98
2023-03-03T21:49:32.657Z,37.17
2023-03-03T21:52:01.018Z,36.60
2023-03-03T21:54:29.607Z,36.13
2023-03-03T21:56:57.568Z,34.88
2023-03-03T21:59:25.835Z,37.20
2023-03-03T22:01:55.452Z,38.45
2023-03-03T22:04:23.858Z,37.58
2023-03-03T22:06:52.698Z,37.35
2023-03-03T22:09:21.390Z,40.00
2023-03-03T22:11:49.669Z,39.55
2023-03-03T22:14:18.036Z,39.10
2023-03-03T22:16:46.399Z,39.33
2023-03-03T22:19:16.163Z,38.15
2023-03-03T22:21:44.088Z,36.92
2023-03-03T22:24:12.401Z,37.78
2023-03-03T22:26:40.359Z,39.42
2023-03-03T22:29:08.550Z,40.38
2023-03-03T22:31:36.487Z,40.15
2023-03-03T22:34:05.333Z,40.35
2023-03-03T22:36:34.884Z,38.40
2023-03-03T22:39:03.046Z,38.70
2023-03-03T22:41:31.159Z,36.60
2023-03-03T22:43:59.419Z,39.63
2023-03-03T22:46:27.501Z,39.08
2023-03-03T22:48:55.984Z,40.88
2023-03-03T22:51:23.923Z,37.33
2023-03-03T22:53:53.516Z,40.58
2023-03-03T22:56:21.649Z,39.72
2023-03-03T22:58:50.344Z,38.40
2023-03-03T23:01:18.271Z,36.20
2023-03-03T23:03:46.469Z,36.72
2023-03-03T23:06:14.377Z,37.35
2023-03-03T23:08:42.584Z,37.40
2023-03-03T23:11:11.877Z,37.15
2023-03-03T23:13:40.043Z,33.30
2023-03-03T23:16:08.583Z,33.83
2023-03-03T23:18:36.962Z,34.67
2023-03-03T23:21:05.273Z,30.08
2023-03-03T23:23:33.443Z,33.20
2023-03-03T23:26:02.100Z,31.27
2023-03-03T23:28:31.789Z,33.22
2023-03-03T23:30:59.729Z,32.28
2023-03-03T23:33:28.010Z,32.42
2023-03-03T23:35:56.084Z,30.85
2023-03-03T23:38:24.531Z,26.08
2023-03-03T23:40:52.454Z,31.38
2023-03-03T23:43:20.683Z,30.50
2023-03-03T23:45:49.923Z,31.05
2023-03-03T23:48:18.242Z,28.02
2023-03-03T23:50:46.226Z,28.40
2023-03-03T23:53:14.657Z,28.60
2023-03-03T23:55:43.228Z,25.88
2023-03-03T23:58:11.952Z,28.55
